Weather at Prince George's Hospital Center Heliport

Public forecast

Using degrees Fahrenheit for public forecast. Weather courtesy of forecast.io.

Closest aviation weather report (METAR) to Prince George's Hospital Center Heliport

Closest report is College Park Airport, 3.0 nm (5.6 km) N.

2023/03/29 18:30 (retrieved 14 minutes ago)

KCGS 291830Z AUTO 23006KT 10SM BKN070 15/M03 A3013 RMK AO2 T01481030

Closest aviation forecast (TAF) to Prince George's Hospital Center Heliport

Closest forecast is Ronald Reagan Washington National Airport, 7.2 nm (13.3 km) SW.

2023/03/29 18:42 (retrieved 2 minutes ago)

TAF KDCA 291741Z 2918/3024 VRB04KT P6SM SCT060 SCT250 FM292000 25007KT P6SM FEW060 SCT150 FM300400 32012G21KT P6SM BKN050 BKN250 FM301000 35010G18KT P6SM SCT250 FM302300 12004KT P6SM SKC